createdAt,value
2016-05-14T00:00:08.356Z,87.18
2016-05-14T00:00:18.372Z,87.18
2016-05-14T00:00:28.374Z,87.27
2016-05-14T00:00:38.374Z,87.08
2016-05-14T00:00:48.389Z,86.99
2016-05-14T00:00:58.389Z,87.08
2016-05-14T00:01:08.389Z,87.08
2016-05-14T00:01:18.389Z,86.9
2016-05-14T00:01:28.408Z,87.13
2016-05-14T00:01:38.408Z,87.23
2016-05-14T00:01:48.408Z,87.08
2016-05-14T00:01:58.424Z,87.08
2016-05-14T00:02:08.424Z,87.27
2016-05-14T00:02:18.424Z,87.27
2016-05-14T00:02:28.427Z,87.32
2016-05-14T00:02:38.442Z,87.13
2016-05-14T00:02:48.442Z,87.51
2016-05-14T00:02:58.458Z,86.8
2016-05-14T00:03:08.442Z,86.94
2016-05-14T00:03:18.458Z,86.36
2016-05-14T00:03:28.460Z,86.46
2016-05-14T00:03:38.866Z,86.55
2016-05-14T00:03:48.476Z,86.55
2016-05-14T00:03:58.491Z,86.51
2016-05-14T00:04:08.476Z,86.51
2016-05-14T00:04:18.476Z,86.55
2016-05-14T00:04:28.495Z,86.7
2016-05-14T00:04:38.495Z,86.7
2016-05-14T00:04:48.495Z,86.84
2016-05-14T00:04:58.511Z,86.51
2016-05-14T00:05:08.511Z,86.61
2016-05-14T00:05:18.511Z,86.75
2016-05-14T00:05:28.527Z,86.84
2016-05-14T00:05:38.527Z,86.84
2016-05-14T00:05:48.527Z,86.84
2016-05-14T00:05:58.527Z,86.65
2016-05-14T00:06:08.543Z,86.84
2016-05-14T00:06:18.543Z,86.84
2016-05-14T00:06:28.563Z,86.55
2016-05-14T00:06:38.563Z,86.55
2016-05-14T00:06:48.563Z,86.55
2016-05-14T00:06:58.563Z,86.84
2016-05-14T00:07:08.578Z,86.75
2016-05-14T00:07:18.578Z,86.75
2016-05-14T00:07:28.580Z,86.65
2016-05-14T00:07:38.580Z,86.84
2016-05-14T00:07:48.596Z,86.65
2016-05-14T00:07:58.596Z,86.75
2016-05-14T00:08:08.596Z,86.51
2016-05-14T00:08:18.596Z,86.65
2016-05-14T00:08:28.615Z,86.8
2016-05-14T00:08:38.615Z,86.65
2016-05-14T00:08:48.615Z,86.84
2016-05-14T00:08:58.630Z,86.75
2016-05-14T00:09:08.630Z,86.84
2016-05-14T00:09:18.630Z,86.84
2016-05-14T00:09:28.648Z,86.84
2016-05-14T00:09:39.148Z,86.65
2016-05-14T00:09:48.960Z,86.9
2016-05-14T00:09:58.960Z,86.9
2016-05-14T00:10:08.726Z,87.13
2016-05-14T00:10:18.710Z,86.84
2016-05-14T00:10:28.729Z,86.46
2016-05-14T00:10:38.713Z,86.84
2016-05-14T00:10:48.729Z,86.55
2016-05-14T00:10:58.760Z,86.27
2016-05-14T00:11:08.729Z,86.36
2016-05-14T00:11:18.776Z,86.46
2016-05-14T00:11:28.732Z,86.27
2016-05-14T00:11:38.794Z,86.18
2016-05-14T00:11:48.826Z,86.18
2016-05-14T00:11:58.763Z,86.18
2016-05-14T00:12:08.748Z,86.18
2016-05-14T00:12:37.657Z,85.99
2016-05-14T00:12:47.641Z,85.99
2016-05-14T00:12:57.641Z,86.18
2016-05-14T00:13:07.641Z,86.18
2016-05-14T00:13:17.641Z,85.99
2016-05-14T00:13:27.660Z,86.18
2016-05-14T00:13:37.675Z,85.99
2016-05-14T00:13:47.660Z,85.8
2016-05-14T00:13:57.675Z,85.8
2016-05-14T00:14:07.675Z,85.99
2016-05-14T00:14:17.675Z,85.8
2016-05-14T00:14:27.677Z,85.8
2016-05-14T00:14:37.693Z,85.7
2016-05-14T00:14:47.756Z,85.7
2016-05-14T00:14:57.756Z,85.6
2016-05-14T00:15:07.756Z,85.6
2016-05-14T00:15:17.756Z,85.7
2016-05-14T00:15:27.774Z,85.6
2016-05-14T00:15:37.759Z,85.89
2016-05-14T00:15:47.774Z,85.8
2016-05-14T00:15:57.774Z,85.8
2016-05-14T00:16:07.790Z,85.8
2016-05-14T00:16:17.743Z,85.8
2016-05-14T00:16:27.792Z,85.8
2016-05-14T00:16:37.792Z,85.7
2016-05-14T00:16:47.807Z,85.7
2016-05-14T00:16:57.792Z,85.7
2016-05-14T00:17:07.823Z,85.89
2016-05-14T00:17:17.792Z,85.7
2016-05-14T00:17:27.811Z,85.99
2016-05-14T00:17:37.843Z,86.08
2016-05-14T00:17:47.780Z,86.08
2016-05-14T00:17:57.843Z,85.99
2016-05-14T00:18:07.905Z,85.99
2016-05-14T00:18:26.892Z,85.8
2016-05-14T00:18:36.892Z,85.6
2016-05-14T00:18:46.892Z,85.6
2016-05-14T00:18:56.892Z,85.41
2016-05-14T00:19:06.907Z,85.41
2016-05-14T00:19:16.907Z,85.6
2016-05-14T00:19:26.910Z,85.41
2016-05-14T00:19:36.910Z,85.51
2016-05-14T00:19:46.910Z,85.22
2016-05-14T00:19:57.004Z,84.94
2016-05-14T00:20:06.973Z,85.03
2016-05-14T00:20:16.941Z,85.32
2016-05-14T00:20:26.928Z,85.32
2016-05-14T00:20:36.990Z,85.22
2016-05-14T00:20:46.897Z,85.22
2016-05-14T00:20:57.006Z,85.13
2016-05-14T00:21:06.912Z,85.22
2016-05-14T00:21:16.912Z,85.22
2016-05-14T00:21:26.915Z,85.13
2016-05-14T00:21:36.915Z,85.22
2016-05-14T00:21:46.931Z,85.41
2016-05-14T00:21:56.946Z,85.41
2016-05-14T00:22:06.931Z,85.13
2016-05-14T00:22:16.946Z,85.41
2016-05-14T00:22:26.949Z,85.32
2016-05-14T00:22:36.949Z,85.41
2016-05-14T00:22:46.949Z,85.41
2016-05-14T00:22:56.965Z,85.32
2016-05-14T00:23:06.965Z,85.32
2016-05-14T00:23:16.965Z,85.41
2016-05-14T00:23:26.984Z,85.41
2016-05-14T00:23:37.031Z,85.51
2016-05-14T00:23:46.984Z,85.51
2016-05-14T00:23:56.984Z,85.7
2016-05-14T00:24:06.999Z,85.6
2016-05-14T00:24:17.015Z,85.6
2016-05-14T00:24:27.017Z,85.51
2016-05-14T00:24:37.017Z,85.6
2016-05-14T00:24:47.017Z,85.6
2016-05-14T00:24:57.017Z,85.6
2016-05-14T00:25:07.033Z,85.51
2016-05-14T00:25:17.033Z,85.51
2016-05-14T00:25:27.035Z,85.41
2016-05-14T00:25:37.035Z,85.32
2016-05-14T00:25:47.050Z,85.41
2016-05-14T00:25:57.050Z,85.03
2016-05-14T00:26:07.128Z,85.13
2016-05-14T00:26:17.050Z,84.65
2016-05-14T00:26:27.069Z,85.03
2016-05-14T00:26:37.069Z,84.75
2016-05-14T00:26:47.069Z,84.84
2016-05-14T00:26:57.084Z,84.56
2016-05-14T00:27:07.084Z,84.17
2016-05-14T00:27:17.084Z,84.17
2016-05-14T00:27:27.087Z,84.17
2016-05-14T00:27:37.103Z,84.17
2016-05-14T00:27:47.103Z,84.27
2016-05-14T00:27:57.103Z,84.17
2016-05-14T00:28:07.119Z,84.17
2016-05-14T00:28:17.119Z,84.36
2016-05-14T00:28:27.122Z,84.27
2016-05-14T00:28:37.122Z,84.17
2016-05-14T00:28:47.137Z,84.75
2016-05-14T00:28:57.137Z,84.27
2016-05-14T00:29:07.137Z,84.36
2016-05-14T00:29:17.153Z,84.27
2016-05-14T00:29:27.155Z,84.36
2016-05-14T00:29:37.155Z,84.36
2016-05-14T00:29:47.171Z,84.27
2016-05-14T00:29:57.171Z,84.17
2016-05-14T00:30:07.171Z,84.46
2016-05-14T00:30:17.171Z,84.36
2016-05-14T00:30:27.189Z,84.17
2016-05-14T00:30:37.189Z,84.36
2016-05-14T00:30:47.189Z,84.27
2016-05-14T00:30:57.205Z,84.27
2016-05-14T00:31:07.205Z,84.27
2016-05-14T00:31:17.205Z,84.36
2016-05-14T00:31:27.208Z,84.17
2016-05-14T00:31:37.223Z,84.17
2016-05-14T00:31:47.223Z,84.56
2016-05-14T00:31:57.223Z,84.56
2016-05-14T00:32:07.223Z,84.27
2016-05-14T00:32:17.239Z,84.46
2016-05-14T00:32:27.242Z,84.56
2016-05-14T00:32:37.242Z,84.56
2016-05-14T00:32:47.258Z,84.56
2016-05-14T00:32:57.258Z,84.56
2016-05-14T00:33:07.258Z,84.36
2016-05-14T00:33:17.586Z,84.36
2016-05-14T00:33:27.400Z,84.36
2016-05-14T00:33:37.275Z,84.36
2016-05-14T00:33:47.275Z,84.27
2016-05-14T00:33:57.291Z,84.36
2016-05-14T00:34:07.291Z,83.98
2016-05-14T00:34:17.291Z,84.08
2016-05-14T00:34:27.293Z,84.27
2016-05-14T00:34:37.309Z,83.8
2016-05-14T00:34:47.309Z,83.7
2016-05-14T00:34:57.402Z,83.8
2016-05-14T00:35:07.324Z,83.61
2016-05-14T00:35:17.324Z,83.41
2016-05-14T00:35:27.328Z,83.7
2016-05-14T00:35:37.344Z,83.41
2016-05-14T00:35:47.344Z,83.22
2016-05-14T00:35:57.344Z,83.61
2016-05-14T00:36:07.344Z,83.32
2016-05-14T00:36:17.359Z,83.32
2016-05-14T00:36:27.361Z,83.41
2016-05-14T00:36:37.361Z,82.84
2016-05-14T00:36:47.377Z,83.51
2016-05-14T00:36:57.377Z,83.03
2016-05-14T00:37:07.377Z,83.22
2016-05-14T00:37:17.377Z,83.22
2016-05-14T00:37:27.396Z,83.32
2016-05-14T00:37:37.396Z,83.13
2016-05-14T00:37:47.396Z,83.22
2016-05-14T00:37:57.411Z,83.22
2016-05-14T00:38:07.411Z,83.41
2016-05-14T00:38:17.411Z,83.13
2016-05-14T00:38:27.414Z,83.32
2016-05-14T00:38:37.430Z,83.41
2016-05-14T00:38:47.430Z,83.32
2016-05-14T00:38:57.430Z,83.13
2016-05-14T00:39:07.446Z,83.13
2016-05-14T00:39:17.446Z,83.41
2016-05-14T00:39:27.448Z,83.41
2016-05-14T00:39:37.448Z,83.22
2016-05-14T00:39:47.463Z,83.13
2016-05-14T00:39:57.463Z,83.51
2016-05-14T00:40:07.463Z,83.03
2016-05-14T00:40:17.479Z,83.22
2016-05-14T00:40:27.482Z,83.22
2016-05-14T00:40:37.482Z,83.22
2016-05-14T00:40:47.482Z,83.22
2016-05-14T00:40:57.497Z,83.22
2016-05-14T00:41:07.497Z,83.22
2016-05-14T00:41:17.513Z,83.32
2016-05-14T00:41:27.516Z,83.13
2016-05-14T00:41:37.516Z,83.32
2016-05-14T00:41:47.516Z,83.22
2016-05-14T00:41:57.516Z,83.32
2016-05-14T00:42:07.532Z,82.75
2016-05-14T00:42:17.532Z,82.84
2016-05-14T00:42:27.534Z,82.93
2016-05-14T00:42:37.549Z,82.75
2016-05-14T00:42:47.549Z,82.84
2016-05-14T00:42:57.549Z,82.93
2016-05-14T00:43:07.565Z,83.13
2016-05-14T00:43:17.565Z,82.75
2016-05-14T00:43:27.568Z,82.84
2016-05-14T00:43:37.568Z,82.75
2016-05-14T00:43:47.584Z,82.46
2016-05-14T00:43:57.584Z,82.9
2016-05-14T00:44:07.584Z,83.41
2016-05-14T00:44:17.584Z,83.41
2016-05-14T00:44:27.601Z,82.84
2016-05-14T00:44:37.601Z,83.22
2016-05-14T00:44:47.601Z,83.41
2016-05-14T00:44:57.617Z,82.99
2016-05-14T00:45:07.617Z,83.03
2016-05-14T00:45:17.617Z,82.75
2016-05-14T00:45:27.636Z,82.84
2016-05-14T00:45:37.636Z,82.56
2016-05-14T00:45:47.636Z,82.37
2016-05-14T00:45:57.636Z,82.84
2016-05-14T00:46:07.652Z,82.18
2016-05-14T00:46:17.652Z,82.56
2016-05-14T00:46:27.671Z,82.46
2016-05-14T00:46:37.655Z,82.37
2016-05-14T00:46:47.671Z,82.18
2016-05-14T00:46:57.671Z,82.37
2016-05-14T00:47:07.671Z,82.37
2016-05-14T00:47:17.686Z,82.08
2016-05-14T00:47:27.688Z,81.98
2016-05-14T00:47:37.688Z,82.18
2016-05-14T00:47:47.704Z,82.37
2016-05-14T00:47:57.704Z,82.37
2016-05-14T00:48:07.704Z,82.18
2016-05-14T00:48:18.141Z,82.37
2016-05-14T00:48:27.769Z,82.46
2016-05-14T00:48:37.723Z,81.79
2016-05-14T00:48:47.723Z,81.89
2016-05-14T00:48:57.738Z,81.89
2016-05-14T00:49:07.738Z,81.79
2016-05-14T00:49:17.738Z,81.79
2016-05-14T00:49:27.740Z,82.65
2016-05-14T00:49:37.756Z,81.76
2016-05-14T00:49:47.756Z,81.18
2016-05-14T00:49:57.756Z,81.7
2016-05-14T00:50:07.787Z,81.66
2016-05-14T00:50:17.771Z,81.56
2016-05-14T00:50:27.774Z,81.66
2016-05-14T00:50:37.774Z,81.66
2016-05-14T00:50:47.790Z,81.47
2016-05-14T00:50:57.790Z,81.47
2016-05-14T00:51:07.790Z,81.47
2016-05-14T00:51:17.806Z,81.47
2016-05-14T00:51:27.808Z,81.41
2016-05-14T00:51:37.808Z,81.37
2016-05-14T00:51:47.823Z,80.99
2016-05-14T00:51:57.823Z,81.18
2016-05-14T00:52:07.823Z,80.71
2016-05-14T00:52:17.823Z,81.09
2016-05-14T00:52:27.842Z,81.09
2016-05-14T00:52:37.858Z,80.99
2016-05-14T00:52:47.842Z,81.18
2016-05-14T00:52:57.842Z,80.99
2016-05-14T00:53:07.858Z,80.99
2016-05-14T00:53:17.858Z,81.18
2016-05-14T00:53:27.861Z,81.18
2016-05-14T00:53:37.876Z,81.28
2016-05-14T00:53:47.876Z,81.18
2016-05-14T00:53:57.876Z,81.18
2016-05-14T00:54:07.876Z,81.09
2016-05-14T00:54:17.907Z,81.56
2016-05-14T00:54:27.895Z,81.47
2016-05-14T00:54:37.895Z,81.56
2016-05-14T00:54:47.910Z,81.56
2016-05-14T00:54:57.910Z,81.56
2016-05-14T00:55:07.910Z,81.85
2016-05-14T00:55:17.910Z,81.76
2016-05-14T00:55:27.929Z,81.56
2016-05-14T00:55:37.929Z,81.47
2016-05-14T00:55:47.929Z,81.85
2016-05-14T00:55:57.945Z,81.76
2016-05-14T00:56:07.945Z,81.85
2016-05-14T00:56:17.945Z,81.66
2016-05-14T00:56:27.978Z,81.76
2016-05-14T00:56:37.962Z,81.66
2016-05-14T00:56:47.962Z,81.85
2016-05-14T00:56:57.962Z,81.85
2016-05-14T00:57:07.978Z,81.85
2016-05-14T00:57:17.978Z,81.56
2016-05-14T00:57:27.980Z,81.95
2016-05-14T00:57:37.980Z,81.76
2016-05-14T00:57:47.996Z,81.66
2016-05-14T00:57:57.996Z,81.76
2016-05-14T00:58:08.011Z,81.66
2016-05-14T00:58:18.011Z,81.66
2016-05-14T00:58:28.014Z,81.66
2016-05-14T00:58:38.014Z,81.66
2016-05-14T00:58:48.030Z,81.85
2016-05-14T00:58:58.030Z,81.66
2016-05-14T00:59:08.030Z,81.66
2016-05-14T00:59:18.030Z,81.76
2016-05-14T00:59:28.048Z,81.76
2016-05-14T00:59:38.048Z,81.66
2016-05-14T00:59:48.048Z,81.85
2016-05-14T00:59:58.048Z,81.76
2016-05-14T01:00:08.064Z,81.85
2016-05-14T01:00:18.064Z,81.66
2016-05-14T01:00:28.067Z,81.66
2016-05-14T01:00:38.083Z,81.66
2016-05-14T01:00:48.083Z,81.47
2016-05-14T01:00:58.083Z,81.56
2016-05-14T01:01:08.083Z,81.66
2016-05-14T01:01:18.098Z,81.66
2016-05-14T01:01:28.101Z,81.66
2016-05-14T01:01:38.101Z,81.56
2016-05-14T01:01:48.117Z,82.04
2016-05-14T01:01:58.117Z,81.95
2016-05-14T01:02:08.117Z,81.66
2016-05-14T01:02:18.133Z,82.04
2016-05-14T01:02:28.135Z,81.66
2016-05-14T01:02:38.135Z,81.47
2016-05-14T01:02:48.135Z,81.56
2016-05-14T01:02:58.135Z,81.56
2016-05-14T01:03:08.150Z,81.76
2016-05-14T01:03:18.150Z,81.56
2016-05-14T01:03:28.669Z,81.85
2016-05-14T01:03:38.184Z,81.85
2016-05-14T01:03:48.169Z,81.66
2016-05-14T01:03:58.169Z,81.66
2016-05-14T01:04:08.184Z,81.66
2016-05-14T01:04:18.184Z,81.47
2016-05-14T01:04:28.186Z,81.47
2016-05-14T01:04:38.186Z,81.95
2016-05-14T01:04:48.202Z,81.85
2016-05-14T01:04:58.202Z,81.66
2016-05-14T01:05:08.202Z,81.85
2016-05-14T01:05:18.202Z,81.66
2016-05-14T01:05:28.221Z,81.66
2016-05-14T01:05:38.221Z,81.66
2016-05-14T01:05:48.221Z,81.66
2016-05-14T01:05:58.236Z,81.56
2016-05-14T01:06:08.236Z,81.28
2016-05-14T01:06:18.236Z,81.56
2016-05-14T01:06:28.255Z,81.66
2016-05-14T01:06:38.255Z,81.76
2016-05-14T01:06:48.255Z,81.47
2016-05-14T01:06:58.255Z,81.66
2016-05-14T01:07:08.271Z,81.09
2016-05-14T01:07:18.271Z,81.18
2016-05-14T01:07:28.274Z,81.28
2016-05-14T01:07:38.289Z,81.18
2016-05-14T01:07:48.289Z,81.09
2016-05-14T01:07:58.289Z,81.37
2016-05-14T01:08:08.289Z,81.09
2016-05-14T01:08:18.305Z,81.28
2016-05-14T01:08:28.308Z,81.28
2016-05-14T01:08:38.308Z,81.28
2016-05-14T01:08:48.308Z,81.18
2016-05-14T01:08:58.323Z,81.28
2016-05-14T01:09:08.323Z,81.37
2016-05-14T01:09:18.339Z,81.28
2016-05-14T01:09:28.341Z,81.18
2016-05-14T01:09:38.341Z,81.18
2016-05-14T01:09:48.341Z,80.99
2016-05-14T01:09:58.357Z,81.66
2016-05-14T01:10:08.357Z,81.66
2016-05-14T01:10:18.357Z,81.66
2016-05-14T01:10:28.360Z,81.28
2016-05-14T01:10:38.375Z,81.28
2016-05-14T01:10:48.375Z,81.28
2016-05-14T01:10:58.375Z,81.37
2016-05-14T01:11:08.391Z,81.47
2016-05-14T01:11:18.391Z,81.18
2016-05-14T01:11:28.393Z,81.28
2016-05-14T01:11:38.393Z,81.28
2016-05-14T01:11:48.409Z,80.9
2016-05-14T01:11:58.409Z,81.03
2016-05-14T01:12:08.409Z,81.28
2016-05-14T01:12:18.424Z,81.09
2016-05-14T01:12:28.427Z,80.9
2016-05-14T01:12:38.427Z,80.99
2016-05-14T01:12:48.427Z,80.99
2016-05-14T01:12:58.443Z,80.8
2016-05-14T01:13:08.443Z,80.42
2016-05-14T01:13:18.458Z,80.71
2016-05-14T01:13:28.461Z,80.52
2016-05-14T01:13:38.461Z,80.42
2016-05-14T01:13:48.461Z,80.52
2016-05-14T01:13:58.461Z,80.42
2016-05-14T01:14:08.477Z,80.61
2016-05-14T01:14:18.477Z,80.61
2016-05-14T01:14:28.479Z,80.71
2016-05-14T01:14:38.479Z,80.71
2016-05-14T01:14:48.495Z,80.71
2016-05-14T01:14:58.495Z,80.61
2016-05-14T01:15:08.495Z,80.61
2016-05-14T01:15:18.510Z,80.94
2016-05-14T01:15:28.514Z,80.71
2016-05-14T01:15:38.514Z,80.8
2016-05-14T01:15:48.514Z,80.8
2016-05-14T01:15:58.530Z,80.46
2016-05-14T01:16:08.530Z,81.23
2016-05-14T01:16:18.530Z,80.65
2016-05-14T01:16:28.548Z,80.61
2016-05-14T01:16:38.548Z,80.61
2016-05-14T01:16:48.548Z,80.65
2016-05-14T01:16:58.563Z,80.71
2016-05-14T01:17:08.563Z,80.75
2016-05-14T01:17:18.563Z,80.61
2016-05-14T01:17:28.565Z,80.55
2016-05-14T01:17:38.581Z,80.55
2016-05-14T01:17:48.581Z,80.65
2016-05-14T01:17:58.581Z,80.61
2016-05-14T01:18:08.596Z,80.94
2016-05-14T01:18:18.784Z,80.71
2016-05-14T01:18:28.616Z,80.55
2016-05-14T01:18:38.929Z,80.84
2016-05-14T01:18:48.616Z,81.13
2016-05-14T01:18:58.616Z,81.03
2016-05-14T01:19:08.616Z,80.75
2016-05-14T01:19:18.632Z,81.03
2016-05-14T01:19:28.634Z,80.75
2016-05-14T01:19:38.634Z,80.84
2016-05-14T01:19:48.634Z,80.61
2016-05-14T01:19:58.649Z,80.84
2016-05-14T01:20:08.649Z,80.61
2016-05-14T01:20:18.649Z,80.71
2016-05-14T01:20:28.651Z,80.84
2016-05-14T01:20:38.667Z,80.42
2016-05-14T01:20:48.667Z,80.65
2016-05-14T01:20:58.667Z,80.55
2016-05-14T01:21:08.683Z,80.55
2016-05-14T01:21:18.683Z,80.65
2016-05-14T01:21:28.686Z,80.65
2016-05-14T01:21:38.686Z,80.84
2016-05-14T01:21:48.701Z,80.65
2016-05-14T01:21:58.701Z,80.65
2016-05-14T01:22:08.701Z,80.46
2016-05-14T01:22:18.717Z,80.55
2016-05-14T01:22:28.720Z,80.55
2016-05-14T01:22:38.720Z,80.36
2016-05-14T01:22:48.735Z,80.8
2016-05-14T01:22:58.735Z,80.65
2016-05-14T01:23:08.735Z,80.55
2016-05-14T01:23:18.735Z,80.65
2016-05-14T01:23:28.754Z,80.94
2016-05-14T01:23:38.754Z,80.65
2016-05-14T01:23:48.754Z,80.65
2016-05-14T01:23:58.754Z,80.65
2016-05-14T01:24:08.770Z,80.94
2016-05-14T01:24:18.770Z,80.84
2016-05-14T01:24:28.772Z,80.84
2016-05-14T01:24:38.787Z,80.84
2016-05-14T01:24:48.787Z,81.03
2016-05-14T01:24:58.787Z,80.75
2016-05-14T01:25:08.787Z,80.75
2016-05-14T01:25:18.803Z,80.36
2016-05-14T01:25:28.806Z,80.55
2016-05-14T01:25:38.806Z,80.46
2016-05-14T01:25:48.822Z,80.27
2016-05-14T01:25:58.822Z,80.55
2016-05-14T01:26:08.822Z,80.27
2016-05-14T01:26:18.822Z,80.46
2016-05-14T01:26:28.840Z,80.46
2016-05-14T01:26:38.840Z,80.36
2016-05-14T01:26:48.840Z,80.46
2016-05-14T01:26:58.840Z,80.36
2016-05-14T01:27:08.856Z,80.36
2016-05-14T01:27:18.856Z,80.27
2016-05-14T01:27:28.858Z,80.27
2016-05-14T01:27:38.873Z,80.46
2016-05-14T01:27:48.873Z,80.46
2016-05-14T01:27:58.873Z,80.46
2016-05-14T01:28:08.889Z,80.55
2016-05-14T01:28:18.889Z,80.46
2016-05-14T01:28:28.892Z,80.36
2016-05-14T01:28:38.892Z,80.27
2016-05-14T01:28:48.908Z,80.27
2016-05-14T01:28:58.908Z,80.27
2016-05-14T01:29:08.908Z,80.36
2016-05-14T01:29:18.923Z,80.36
2016-05-14T01:29:28.926Z,80.46
2016-05-14T01:29:38.926Z,80.65
2016-05-14T01:29:48.942Z,80.46
2016-05-14T01:29:58.942Z,80.55
2016-05-14T01:30:08.942Z,80.36
2016-05-14T01:30:18.958Z,80.65
2016-05-14T01:30:28.961Z,79.89
2016-05-14T01:30:38.961Z,80.27
2016-05-14T01:30:48.961Z,80.46
2016-05-14T01:30:58.961Z,80.46
2016-05-14T01:31:08.976Z,80.27
2016-05-14T01:31:18.976Z,80.65
2016-05-14T01:31:28.979Z,80.65
2016-05-14T01:31:38.995Z,80.46
2016-05-14T01:31:48.995Z,79.89
2016-05-14T01:31:58.995Z,79.89
2016-05-14T01:32:08.995Z,79.99
2016-05-14T01:32:19.010Z,79.99
2016-05-14T01:32:29.012Z,79.99
2016-05-14T01:32:39.012Z,80.18
2016-05-14T01:32:49.028Z,80.36
2016-05-14T01:32:59.028Z,80.36
2016-05-14T01:33:09.028Z,80.36
2016-05-14T01:33:19.028Z,80.46
2016-05-14T01:33:29.047Z,80.36
2016-05-14T01:33:39.344Z,80.55
2016-05-14T01:33:49.062Z,80.36
2016-05-14T01:33:59.062Z,80.46
2016-05-14T01:34:09.062Z,80.46
2016-05-14T01:34:19.062Z,80.55
2016-05-14T01:34:29.065Z,80.46
2016-05-14T01:34:39.081Z,80.36
2016-05-14T01:34:49.081Z,80.27
2016-05-14T01:34:59.081Z,80.36
2016-05-14T01:35:09.097Z,80.55
2016-05-14T01:35:19.097Z,80.36
2016-05-14T01:35:29.099Z,80.27
2016-05-14T01:35:39.114Z,79.99
2016-05-14T01:35:49.114Z,80.08
2016-05-14T01:35:59.114Z,80.18
2016-05-14T01:36:09.114Z,80.36
2016-05-14T01:36:19.130Z,80.08
2016-05-14T01:36:29.132Z,80.18
2016-05-14T01:36:39.132Z,79.89
2016-05-14T01:36:49.132Z,79.99
2016-05-14T01:36:59.147Z,80.27
2016-05-14T01:37:09.147Z,80.18
2016-05-14T01:37:19.147Z,80.27
2016-05-14T01:37:29.166Z,79.99
2016-05-14T01:37:39.166Z,80.46
2016-05-14T01:37:49.166Z,80.27
2016-05-14T01:37:59.182Z,80.18
2016-05-14T01:38:09.182Z,80.27
2016-05-14T01:38:19.182Z,80.08
2016-05-14T01:38:29.185Z,80.18
2016-05-14T01:38:39.200Z,80.08
2016-05-14T01:39:14.232Z,80.08
2016-05-14T01:39:19.810Z,80.46
2016-05-14T01:39:29.797Z,79.89
2016-05-14T01:39:39.797Z,80.36
2016-05-14T01:39:49.797Z,80.36
2016-05-14T01:39:59.797Z,80.46
2016-05-14T01:40:09.813Z,80.36
2016-05-14T01:40:19.813Z,80.46
2016-05-14T01:40:29.830Z,80.75
2016-05-14T01:40:39.830Z,80.84
2016-05-14T01:40:49.830Z,80.55
2016-05-14T01:40:59.830Z,80.65
2016-05-14T01:41:09.846Z,80.75
2016-05-14T01:41:19.846Z,80.75
2016-05-14T01:41:29.850Z,81.32
2016-05-14T01:41:39.866Z,80.84
2016-05-14T01:41:49.881Z,80.84
2016-05-14T01:41:59.866Z,80.55
2016-05-14T01:42:09.881Z,80.94
2016-05-14T01:42:19.866Z,80.84
2016-05-14T01:42:29.882Z,80.75
2016-05-14T01:42:39.898Z,81.03
2016-05-14T01:42:49.898Z,80.94
2016-05-14T01:42:59.898Z,81.23
2016-05-14T01:43:09.898Z,81.23
2016-05-14T01:43:19.898Z,81.32
2016-05-14T01:43:29.916Z,81.13
2016-05-14T01:43:39.916Z,81.23
2016-05-14T01:43:49.916Z,81.7
2016-05-14T01:43:59.916Z,81.51
2016-05-14T01:44:09.932Z,81.79
2016-05-14T01:44:19.932Z,81.32
2016-05-14T01:44:29.935Z,81.51
2016-05-14T01:44:39.935Z,81.51
2016-05-14T01:44:49.951Z,81.7
2016-05-14T01:44:59.951Z,81.6
2016-05-14T01:45:09.966Z,81.51
2016-05-14T01:45:19.966Z,81.79
2016-05-14T01:45:29.969Z,81.79
2016-05-14T01:45:39.969Z,81.7
2016-05-14T01:45:49.985Z,81.89
2016-05-14T01:45:59.985Z,81.7
2016-05-14T01:46:09.985Z,81.89
2016-05-14T01:46:19.985Z,81.6
2016-05-14T01:46:30.004Z,81.89
2016-05-14T01:46:40.004Z,81.89
2016-05-14T01:46:50.004Z,81.41
2016-05-14T01:47:00.019Z,81.7
2016-05-14T01:47:10.019Z,81.6
2016-05-14T01:47:20.019Z,81.51
2016-05-14T01:47:30.021Z,81.51
2016-05-14T01:47:40.037Z,81.41
2016-05-14T01:47:50.037Z,81.79
2016-05-14T01:48:00.052Z,81.23
2016-05-14T01:48:10.052Z,81.13
2016-05-14T01:48:20.052Z,81.7
2016-05-14T01:48:30.055Z,81.6
2016-05-14T01:48:40.071Z,81.13
2016-05-14T01:48:50.071Z,81.03
2016-05-14T01:49:00.071Z,81.13
2016-05-14T01:49:10.071Z,81.13
2016-05-14T01:49:20.087Z,81.7
2016-05-14T01:49:30.089Z,81.23
2016-05-14T01:49:40.089Z,81.51
2016-05-14T01:49:50.089Z,81.6
2016-05-14T01:50:00.104Z,81.7
2016-05-14T01:50:10.104Z,81.41
2016-05-14T01:50:20.104Z,81.7
2016-05-14T01:50:30.124Z,81.03
2016-05-14T01:50:40.124Z,81.13
2016-05-14T01:50:50.124Z,81.32
2016-05-14T01:51:00.124Z,81.7
2016-05-14T01:51:10.140Z,81.7
2016-05-14T01:51:20.140Z,81.7
2016-05-14T01:51:30.157Z,81.7
2016-05-14T01:51:40.157Z,81.6
2016-05-14T01:51:50.157Z,81.03
2016-05-14T01:52:00.157Z,81.18
2016-05-14T01:52:10.157Z,81.03
2016-05-14T01:52:20.173Z,81.03
2016-05-14T01:52:30.176Z,81.23
2016-05-14T01:52:40.176Z,81.23
2016-05-14T01:52:50.191Z,81.13
2016-05-14T01:53:00.191Z,81.41
2016-05-14T01:53:10.191Z,81.41
2016-05-14T01:53:20.191Z,81.6
2016-05-14T01:53:30.225Z,81.79
2016-05-14T01:53:40.287Z,81.76
2016-05-14T01:53:50.240Z,81.76
2016-05-14T01:54:00.240Z,81.7
2016-05-14T01:54:10.225Z,81.6
2016-05-14T01:54:20.303Z,81.7
2016-05-14T01:54:30.259Z,81.7
2016-05-14T01:54:40.290Z,81.7
2016-05-14T01:54:50.290Z,81.79
2016-05-14T01:55:00.306Z,81.41
2016-05-14T01:55:10.353Z,81.32
2016-05-14T01:55:20.306Z,81.32
2016-05-14T01:55:30.293Z,81.41
2016-05-14T01:55:40.293Z,81.32
2016-05-14T01:55:59.403Z,81.32
2016-05-14T01:56:09.356Z,81.6
2016-05-14T01:56:19.606Z,81.6
2016-05-14T01:56:29.405Z,81.7
2016-05-14T01:56:39.373Z,81.89
2016-05-14T01:56:49.420Z,81.7
2016-05-14T01:56:59.405Z,81.6
2016-05-14T01:57:09.420Z,81.7
2016-05-14T01:57:19.483Z,81.7
2016-05-14T01:57:29.393Z,81.7
2016-05-14T01:57:39.455Z,81.51
2016-05-14T01:57:49.393Z,81.79
2016-05-14T01:57:59.455Z,81.89
2016-05-14T01:58:09.440Z,81.51
2016-05-14T01:58:19.409Z,81.89
2016-05-14T01:58:29.473Z,81.79
2016-05-14T01:58:39.411Z,81.51
2016-05-14T01:58:49.411Z,81.56
2016-05-14T01:58:59.473Z,81.51
2016-05-14T01:59:09.489Z,81.23
2016-05-14T01:59:19.442Z,81.6
2016-05-14T01:59:29.445Z,81.23
2016-05-14T01:59:39.445Z,81.28
2016-05-14T01:59:49.445Z,80.9
2016-05-14T01:59:59.460Z,81.18
2016-05-14T02:00:09.460Z,80.99
2016-05-14T02:00:19.460Z,81.32
2016-05-14T02:00:29.462Z,81.28
2016-05-14T02:00:39.603Z,81.28
2016-05-14T02:00:49.478Z,81.28
2016-05-14T02:00:59.478Z,80.99
2016-05-14T02:01:09.478Z,80.99
2016-05-14T02:01:19.494Z,81.09
2016-05-14T02:01:29.497Z,80.99
2016-05-14T02:01:39.497Z,81.18
2016-05-14T02:01:49.512Z,81.37
2016-05-14T02:01:59.512Z,81.37
2016-05-14T02:02:09.512Z,81.09
2016-05-14T02:02:19.512Z,81.28
2016-05-14T02:02:29.531Z,81.28
2016-05-14T02:02:39.531Z,81.28
2016-05-14T02:02:49.531Z,81.28
2016-05-14T02:02:59.547Z,81.28
2016-05-14T02:03:09.890Z,81.09
2016-05-14T02:03:19.937Z,81.28
2016-05-14T02:03:29.549Z,81.28
2016-05-14T02:03:39.564Z,81.18
2016-05-14T02:03:49.564Z,81.09
2016-05-14T02:03:59.564Z,81.37
2016-05-14T02:04:09.580Z,80.71
2016-05-14T02:04:19.580Z,81.18
2016-05-14T02:04:29.583Z,81.09
2016-05-14T02:04:39.598Z,81.09
2016-05-14T02:04:49.598Z,81.18
2016-05-14T02:04:59.598Z,80.9
2016-05-14T02:05:09.598Z,81.47
2016-05-14T02:05:19.614Z,81.37
2016-05-14T02:05:29.616Z,81.09
2016-05-14T02:05:39.616Z,81.09
2016-05-14T02:05:49.632Z,81.28
2016-05-14T02:05:59.632Z,81.09
2016-05-14T02:06:09.632Z,80.8
2016-05-14T02:06:19.647Z,80.71
2016-05-14T02:06:29.650Z,80.71
2016-05-14T02:06:39.650Z,80.71
2016-05-14T02:06:49.650Z,80.61
2016-05-14T02:06:59.666Z,80.8
2016-05-14T02:07:09.666Z,80.61
2016-05-14T02:07:19.666Z,80.61
2016-05-14T02:07:29.669Z,81.28
2016-05-14T02:07:39.685Z,80.61
2016-05-14T02:07:49.685Z,80.71
2016-05-14T02:07:59.685Z,80.61
2016-05-14T02:08:09.700Z,80.61
2016-05-14T02:08:19.700Z,80.61
2016-05-14T02:08:29.703Z,80.42
2016-05-14T02:08:39.703Z,80.61
2016-05-14T02:08:49.719Z,81.18
2016-05-14T02:08:59.750Z,80.23
2016-05-14T02:09:09.766Z,80.61
2016-05-14T02:09:19.734Z,80.9
2016-05-14T02:09:30.034Z,81.09
2016-05-14T02:09:39.847Z,80.99
2016-05-14T02:09:49.737Z,81.09
2016-05-14T02:09:59.753Z,81.28
2016-05-14T02:10:09.753Z,81.32
2016-05-14T02:10:19.753Z,81.37